sensor_id;sensor_type;location;lat;lon;timestamp;P1;durP1;ratioP1;P2;durP2;ratioP2
12683;SDS011;6406;59.312;18.058;2023-01-08T00:01:02;12.77;;;7.73;;
12683;SDS011;6406;59.312;18.058;2023-01-08T00:03:30;6.23;;;5.00;;
12683;SDS011;6406;59.312;18.058;2023-01-08T00:05:59;8.90;;;4.13;;
12683;SDS011;6406;59.312;18.058;2023-01-08T00:08:27;14.33;;;5.10;;
12683;SDS011;6406;59.312;18.058;2023-01-08T00:10:54;10.77;;;7.10;;
12683;SDS011;6406;59.312;18.058;2023-01-08T00:13:23;0.53;;;0.27;;
12683;SDS011;6406;59.312;18.058;2023-01-08T00:15:50;13.23;;;6.60;;
12683;SDS011;6406;59.312;18.058;2023-01-08T00:18:17;0.53;;;0.53;;
12683;SDS011;6406;59.312;18.058;2023-01-08T00:20:45;12.47;;;7.60;;
12683;SDS011;6406;59.312;18.058;2023-01-08T00:23:13;13.17;;;8.63;;
12683;SDS011;6406;59.312;18.058;2023-01-08T00:25:40;2.30;;;1.53;;
12683;SDS011;6406;59.312;18.058;2023-01-08T00:28:07;9.53;;;4.33;;
12683;SDS011;6406;59.312;18.058;2023-01-08T00:30:36;10.20;;;4.43;;
12683;SDS011;6406;59.312;18.058;2023-01-08T00:33:03;6.33;;;5.37;;
12683;SDS011;6406;59.312;18.058;2023-01-08T00:35:30;7.33;;;4.83;;
12683;SDS011;6406;59.312;18.058;2023-01-08T00:37:57;8.47;;;5.60;;
12683;SDS011;6406;59.312;18.058;2023-01-08T00:40:24;9.13;;;5.40;;
12683;SDS011;6406;59.312;18.058;2023-01-08T00:42:51;6.40;;;4.53;;
12683;SDS011;6406;59.312;18.058;2023-01-08T00:45:18;6.13;;;4.53;;
12683;SDS011;6406;59.312;18.058;2023-01-08T00:47:46;13.40;;;4.07;;
12683;SDS011;6406;59.312;18.058;2023-01-08T00:50:13;5.10;;;3.17;;
12683;SDS011;6406;59.312;18.058;2023-01-08T00:52:40;0.17;;;0.17;;
12683;SDS011;6406;59.312;18.058;2023-01-08T00:55:07;11.20;;;4.67;;
12683;SDS011;6406;59.312;18.058;2023-01-08T00:57:35;1.27;;;0.90;;
12683;SDS011;6406;59.312;18.058;2023-01-08T01:00:04;6.67;;;3.97;;
12683;SDS011;6406;59.312;18.058;2023-01-08T01:02:33;3.83;;;2.40;;
12683;SDS011;6406;59.312;18.058;2023-01-08T01:05:02;8.57;;;4.43;;
12683;SDS011;6406;59.312;18.058;2023-01-08T01:07:29;3.37;;;2.80;;
12683;SDS011;6406;59.312;18.058;2023-01-08T01:09:56;4.00;;;3.33;;
12683;SDS011;6406;59.312;18.058;2023-01-08T01:12:23;12.23;;;5.57;;
12683;SDS011;6406;59.312;18.058;2023-01-08T01:14:51;4.47;;;3.17;;
12683;SDS011;6406;59.312;18.058;2023-01-08T01:17:18;5.87;;;4.20;;
12683;SDS011;6406;59.312;18.058;2023-01-08T01:19:45;7.60;;;4.00;;
12683;SDS011;6406;59.312;18.058;2023-01-08T01:22:13;5.93;;;3.03;;
12683;SDS011;6406;59.312;18.058;2023-01-08T01:24:40;4.10;;;3.80;;
12683;SDS011;6406;59.312;18.058;2023-01-08T01:27:07;7.03;;;2.47;;
12683;SDS011;6406;59.312;18.058;2023-01-08T01:29:34;4.80;;;2.33;;
12683;SDS011;6406;59.312;18.058;2023-01-08T01:32:01;2.87;;;1.50;;
12683;SDS011;6406;59.312;18.058;2023-01-08T01:34:28;6.17;;;2.17;;
12683;SDS011;6406;59.312;18.058;2023-01-08T01:36:55;2.50;;;1.90;;
12683;SDS011;6406;59.312;18.058;2023-01-08T01:39:24;0.80;;;0.80;;
12683;SDS011;6406;59.312;18.058;2023-01-08T01:41:51;3.37;;;1.90;;
12683;SDS011;6406;59.312;18.058;2023-01-08T01:44:32;5.33;;;2.97;;
12683;SDS011;6406;59.312;18.058;2023-01-08T01:47:03;3.97;;;3.10;;
12683;SDS011;6406;59.312;18.058;2023-01-08T01:49:37;3.60;;;2.40;;
12683;SDS011;6406;59.312;18.058;2023-01-08T01:52:07;1.73;;;1.53;;
12683;SDS011;6406;59.312;18.058;2023-01-08T01:54:36;1.30;;;1.20;;
12683;SDS011;6406;59.312;18.058;2023-01-08T01:57:03;9.10;;;2.13;;
12683;SDS011;6406;59.312;18.058;2023-01-08T01:59:32;1.33;;;1.23;;
12683;SDS011;6406;59.312;18.058;2023-01-08T02:01:59;1.67;;;1.03;;
12683;SDS011;6406;59.312;18.058;2023-01-08T02:04:26;2.63;;;1.70;;
12683;SDS011;6406;59.312;18.058;2023-01-08T02:06:55;3.03;;;1.83;;
12683;SDS011;6406;59.312;18.058;2023-01-08T02:09:30;1.43;;;1.37;;
12683;SDS011;6406;59.312;18.058;2023-01-08T02:12:07;2.67;;;1.90;;
12683;SDS011;6406;59.312;18.058;2023-01-08T02:14:44;4.13;;;3.27;;
12683;SDS011;6406;59.312;18.058;2023-01-08T02:17:20;1.43;;;1.27;;
12683;SDS011;6406;59.312;18.058;2023-01-08T02:19:52;4.07;;;3.23;;
12683;SDS011;6406;59.312;18.058;2023-01-08T02:22:26;4.63;;;2.27;;
12683;SDS011;6406;59.312;18.058;2023-01-08T02:25:04;2.30;;;1.70;;
12683;SDS011;6406;59.312;18.058;2023-01-08T02:27:37;1.30;;;0.73;;
12683;SDS011;6406;59.312;18.058;2023-01-08T02:30:08;2.30;;;2.10;;
12683;SDS011;6406;59.312;18.058;2023-01-08T02:32:36;4.67;;;3.03;;
12683;SDS011;6406;59.312;18.058;2023-01-08T02:35:05;0.13;;;0.13;;
12683;SDS011;6406;59.312;18.058;2023-01-08T02:37:33;3.17;;;1.23;;
12683;SDS011;6406;59.312;18.058;2023-01-08T02:40:08;3.13;;;2.30;;
12683;SDS011;6406;59.312;18.058;2023-01-08T02:42:46;3.50;;;1.50;;
12683;SDS011;6406;59.312;18.058;2023-01-08T02:45:22;7.57;;;1.47;;
12683;SDS011;6406;59.312;18.058;2023-01-08T02:48:01;5.07;;;1.77;;
12683;SDS011;6406;59.312;18.058;2023-01-08T02:50:35;2.93;;;1.33;;
12683;SDS011;6406;59.312;18.058;2023-01-08T02:53:08;6.03;;;1.77;;
12683;SDS011;6406;59.312;18.058;2023-01-08T02:55:37;1.77;;;1.30;;
12683;SDS011;6406;59.312;18.058;2023-01-08T02:58:08;1.10;;;1.00;;
12683;SDS011;6406;59.312;18.058;2023-01-08T03:00:36;2.10;;;1.37;;
12683;SDS011;6406;59.312;18.058;2023-01-08T03:03:08;0.50;;;0.50;;
12683;SDS011;6406;59.312;18.058;2023-01-08T03:05:38;0.43;;;0.43;;
12683;SDS011;6406;59.312;18.058;2023-01-08T03:08:08;1.73;;;1.23;;
12683;SDS011;6406;59.312;18.058;2023-01-08T03:10:37;1.50;;;1.40;;
12683;SDS011;6406;59.312;18.058;2023-01-08T03:13:07;0.93;;;0.90;;
12683;SDS011;6406;59.312;18.058;2023-01-08T03:15:42;0.40;;;0.40;;
12683;SDS011;6406;59.312;18.058;2023-01-08T03:18:17;1.80;;;1.50;;
12683;SDS011;6406;59.312;18.058;2023-01-08T03:20:46;0.10;;;0.10;;
12683;SDS011;6406;59.312;18.058;2023-01-08T03:23:16;3.03;;;2.10;;
12683;SDS011;6406;59.312;18.058;2023-01-08T03:25:46;1.30;;;1.00;;
12683;SDS011;6406;59.312;18.058;2023-01-08T03:28:16;1.30;;;1.20;;
12683;SDS011;6406;59.312;18.058;2023-01-08T03:30:47;1.10;;;0.93;;
12683;SDS011;6406;59.312;18.058;2023-01-08T03:33:15;0.70;;;0.57;;
12683;SDS011;6406;59.312;18.058;2023-01-08T03:35:45;1.43;;;0.73;;
12683;SDS011;6406;59.312;18.058;2023-01-08T03:38:16;0.53;;;0.53;;
12683;SDS011;6406;59.312;18.058;2023-01-08T03:40:46;1.77;;;0.80;;
12683;SDS011;6406;59.312;18.058;2023-01-08T03:43:18;1.17;;;0.77;;
12683;SDS011;6406;59.312;18.058;2023-01-08T03:45:50;0.60;;;0.50;;
12683;SDS011;6406;59.312;18.058;2023-01-08T03:48:21;1.63;;;1.53;;
12683;SDS011;6406;59.312;18.058;2023-01-08T03:50:50;1.20;;;1.03;;
12683;SDS011;6406;59.312;18.058;2023-01-08T03:53:17;1.23;;;1.13;;
12683;SDS011;6406;59.312;18.058;2023-01-08T03:55:44;1.03;;;0.77;;
12683;SDS011;6406;59.312;18.058;2023-01-08T03:58:11;0.87;;;0.53;;
12683;SDS011;6406;59.312;18.058;2023-01-08T04:00:39;1.70;;;1.60;;
12683;SDS011;6406;59.312;18.058;2023-01-08T04:03:06;1.50;;;1.40;;
12683;SDS011;6406;59.312;18.058;2023-01-08T04:05:33;0.57;;;0.57;;
12683;SDS011;6406;59.312;18.058;2023-01-08T04:08:00;1.30;;;1.20;;
12683;SDS011;6406;59.312;18.058;2023-01-08T04:10:27;1.30;;;1.20;;
12683;SDS011;6406;59.312;18.058;2023-01-08T04:12:54;2.67;;;1.23;;
12683;SDS011;6406;59.312;18.058;2023-01-08T04:15:21;0.53;;;0.37;;
12683;SDS011;6406;59.312;18.058;2023-01-08T04:17:49;1.03;;;0.97;;
12683;SDS011;6406;59.312;18.058;2023-01-08T04:20:16;1.63;;;1.53;;
12683;SDS011;6406;59.312;18.058;2023-01-08T04:22:43;3.37;;;2.13;;
12683;SDS011;6406;59.312;18.058;2023-01-08T04:25:10;2.93;;;2.40;;
12683;SDS011;6406;59.312;18.058;2023-01-08T04:27:37;0.67;;;0.67;;
12683;SDS011;6406;59.312;18.058;2023-01-08T04:30:05;0.77;;;0.77;;
12683;SDS011;6406;59.312;18.058;2023-01-08T04:32:32;1.20;;;1.07;;
12683;SDS011;6406;59.312;18.058;2023-01-08T04:35:01;0.90;;;0.77;;
12683;SDS011;6406;59.312;18.058;2023-01-08T04:37:28;2.37;;;1.13;;
12683;SDS011;6406;59.312;18.058;2023-01-08T04:39:55;0.67;;;0.67;;
12683;SDS011;6406;59.312;18.058;2023-01-08T04:42:22;0.30;;;0.30;;
12683;SDS011;6406;59.312;18.058;2023-01-08T04:44:48;0.50;;;0.50;;
12683;SDS011;6406;59.312;18.058;2023-01-08T04:47:15;1.27;;;0.70;;
12683;SDS011;6406;59.312;18.058;2023-01-08T04:49:42;1.67;;;0.83;;
12683;SDS011;6406;59.312;18.058;2023-01-08T04:52:11;1.03;;;0.40;;
12683;SDS011;6406;59.312;18.058;2023-01-08T04:54:38;1.10;;;1.00;;
12683;SDS011;6406;59.312;18.058;2023-01-08T04:57:05;0.63;;;0.60;;
12683;SDS011;6406;59.312;18.058;2023-01-08T04:59:31;1.40;;;0.80;;
12683;SDS011;6406;59.312;18.058;2023-01-08T05:01:59;0.63;;;0.43;;
12683;SDS011;6406;59.312;18.058;2023-01-08T05:04:25;1.20;;;1.10;;
12683;SDS011;6406;59.312;18.058;2023-01-08T05:06:52;0.30;;;0.30;;
12683;SDS011;6406;59.312;18.058;2023-01-08T05:09:21;1.00;;;0.83;;
12683;SDS011;6406;59.312;18.058;2023-01-08T05:11:48;1.17;;;1.03;;
12683;SDS011;6406;59.312;18.058;2023-01-08T05:14:15;1.33;;;0.93;;
12683;SDS011;6406;59.312;18.058;2023-01-08T05:16:42;0.43;;;0.43;;
12683;SDS011;6406;59.312;18.058;2023-01-08T05:19:09;3.40;;;0.87;;
12683;SDS011;6406;59.312;18.058;2023-01-08T05:21:36;0.33;;;0.33;;
12683;SDS011;6406;59.312;18.058;2023-01-08T05:24:03;3.93;;;2.93;;
12683;SDS011;6406;59.312;18.058;2023-01-08T05:26:31;0.90;;;0.70;;
12683;SDS011;6406;59.312;18.058;2023-01-08T05:28:58;0.00;;;0.00;;
12683;SDS011;6406;59.312;18.058;2023-01-08T05:31:25;1.13;;;0.87;;
12683;SDS011;6406;59.312;18.058;2023-01-08T05:33:52;1.03;;;0.63;;
12683;SDS011;6406;59.312;18.058;2023-01-08T05:36:19;1.53;;;1.10;;
12683;SDS011;6406;59.312;18.058;2023-01-08T05:38:46;1.17;;;0.50;;
12683;SDS011;6406;59.312;18.058;2023-01-08T05:41:13;0.30;;;0.30;;
12683;SDS011;6406;59.312;18.058;2023-01-08T05:43:41;0.80;;;0.73;;
12683;SDS011;6406;59.312;18.058;2023-01-08T05:46:08;0.80;;;0.63;;
12683;SDS011;6406;59.312;18.058;2023-01-08T05:48:35;0.53;;;0.53;;
12683;SDS011;6406;59.312;18.058;2023-01-08T05:51:02;0.57;;;0.30;;
12683;SDS011;6406;59.312;18.058;2023-01-08T05:53:30;2.50;;;1.20;;
12683;SDS011;6406;59.312;18.058;2023-01-08T05:55:58;0.20;;;0.20;;
12683;SDS011;6406;59.312;18.058;2023-01-08T05:58:25;0.93;;;0.70;;
12683;SDS011;6406;59.312;18.058;2023-01-08T06:00:54;0.40;;;0.20;;
12683;SDS011;6406;59.312;18.058;2023-01-08T06:03:26;0.10;;;0.10;;
12683;SDS011;6406;59.312;18.058;2023-01-08T06:05:56;1.20;;;0.93;;
12683;SDS011;6406;59.312;18.058;2023-01-08T06:08:24;5.53;;;1.37;;
12683;SDS011;6406;59.312;18.058;2023-01-08T06:10:51;0.30;;;0.30;;
12683;SDS011;6406;59.312;18.058;2023-01-08T06:13:18;1.20;;;1.13;;
12683;SDS011;6406;59.312;18.058;2023-01-08T06:15:45;1.27;;;0.73;;
12683;SDS011;6406;59.312;18.058;2023-01-08T06:18:13;1.77;;;0.77;;
12683;SDS011;6406;59.312;18.058;2023-01-08T06:20:40;1.60;;;1.03;;
12683;SDS011;6406;59.312;18.058;2023-01-08T06:23:07;0.30;;;0.30;;
12683;SDS011;6406;59.312;18.058;2023-01-08T06:25:34;0.53;;;0.50;;
12683;SDS011;6406;59.312;18.058;2023-01-08T06:28:01;0.53;;;0.53;;
12683;SDS011;6406;59.312;18.058;2023-01-08T06:30:29;0.67;;;0.60;;
12683;SDS011;6406;59.312;18.058;2023-01-08T06:32:56;1.80;;;1.40;;
12683;SDS011;6406;59.312;18.058;2023-01-08T06:35:24;1.37;;;0.93;;
12683;SDS011;6406;59.312;18.058;2023-01-08T06:37:53;1.57;;;0.97;;
12683;SDS011;6406;59.312;18.058;2023-01-08T06:40:20;1.90;;;0.70;;
12683;SDS011;6406;59.312;18.058;2023-01-08T06:42:47;2.13;;;0.93;;
12683;SDS011;6406;59.312;18.058;2023-01-08T06:45:14;1.60;;;0.93;;
12683;SDS011;6406;59.312;18.058;2023-01-08T06:47:41;3.33;;;0.83;;
12683;SDS011;6406;59.312;18.058;2023-01-08T06:50:08;0.00;;;0.00;;
12683;SDS011;6406;59.312;18.058;2023-01-08T06:52:37;3.07;;;0.83;;
12683;SDS011;6406;59.312;18.058;2023-01-08T06:55:05;1.00;;;0.87;;
12683;SDS011;6406;59.312;18.058;2023-01-08T06:57:32;1.17;;;0.47;;
12683;SDS011;6406;59.312;18.058;2023-01-08T06:59:59;1.07;;;1.07;;
12683;SDS011;6406;59.312;18.058;2023-01-08T07:02:26;0.87;;;0.70;;
12683;SDS011;6406;59.312;18.058;2023-01-08T07:04:53;1.07;;;0.50;;
12683;SDS011;6406;59.312;18.058;2023-01-08T07:07:20;0.10;;;0.10;;
12683;SDS011;6406;59.312;18.058;2023-01-08T07:09:49;0.43;;;0.33;;
12683;SDS011;6406;59.312;18.058;2023-01-08T07:12:16;1.73;;;0.90;;
12683;SDS011;6406;59.312;18.058;2023-01-08T07:14:43;1.40;;;1.00;;
12683;SDS011;6406;59.312;18.058;2023-01-08T07:17:10;2.00;;;1.30;;
12683;SDS011;6406;59.312;18.058;2023-01-08T07:19:37;0.00;;;0.00;;
12683;SDS011;6406;59.312;18.058;2023-01-08T07:22:04;2.70;;;1.20;;
12683;SDS011;6406;59.312;18.058;2023-01-08T07:24:31;0.80;;;0.47;;
12683;SDS011;6406;59.312;18.058;2023-01-08T07:26:59;1.57;;;1.23;;
12683;SDS011;6406;59.312;18.058;2023-01-08T07:29:26;0.90;;;0.90;;
12683;SDS011;6406;59.312;18.058;2023-01-08T07:31:53;0.70;;;0.70;;
12683;SDS011;6406;59.312;18.058;2023-01-08T07:34:20;0.80;;;0.23;;
12683;SDS011;6406;59.312;18.058;2023-01-08T07:36:47;0.57;;;0.57;;
12683;SDS011;6406;59.312;18.058;2023-01-08T07:39:14;0.40;;;0.40;;
12683;SDS011;6406;59.312;18.058;2023-01-08T07:41:41;0.00;;;0.00;;
12683;SDS011;6406;59.312;18.058;2023-01-08T07:44:10;0.13;;;0.13;;
12683;SDS011;6406;59.312;18.058;2023-01-08T07:46:37;0.90;;;0.90;;
12683;SDS011;6406;59.312;18.058;2023-01-08T07:49:04;1.83;;;1.17;;
12683;SDS011;6406;59.312;18.058;2023-01-08T07:51:31;1.10;;;1.10;;
12683;SDS011;6406;59.312;18.058;2023-01-08T07:53:58;0.10;;;0.10;;
12683;SDS011;6406;59.312;18.058;2023-01-08T07:56:25;1.30;;;1.20;;
12683;SDS011;6406;59.312;18.058;2023-01-08T07:58:52;4.33;;;1.83;;
12683;SDS011;6406;59.312;18.058;2023-01-08T08:01:20;0.00;;;0.00;;
12683;SDS011;6406;59.312;18.058;2023-01-08T08:03:48;1.13;;;1.10;;
12683;SDS011;6406;59.312;18.058;2023-01-08T08:06:15;1.40;;;1.10;;
12683;SDS011;6406;59.312;18.058;2023-01-08T08:08:42;0.97;;;0.87;;
12683;SDS011;6406;59.312;18.058;2023-01-08T08:11:09;3.60;;;2.20;;
12683;SDS011;6406;59.312;18.058;2023-01-08T08:13:36;2.10;;;1.47;;
12683;SDS011;6406;59.312;18.058;2023-01-08T08:16:06;0.00;;;0.00;;
12683;SDS011;6406;59.312;18.058;2023-01-08T08:18:35;3.83;;;2.97;;
12683;SDS011;6406;59.312;18.058;2023-01-08T08:21:02;0.93;;;0.93;;
12683;SDS011;6406;59.312;18.058;2023-01-08T08:23:30;0.67;;;0.63;;
12683;SDS011;6406;59.312;18.058;2023-01-08T08:25:57;0.00;;;0.00;;
12683;SDS011;6406;59.312;18.058;2023-01-08T08:28:24;0.00;;;0.00;;
12683;SDS011;6406;59.312;18.058;2023-01-08T08:30:51;2.43;;;0.50;;
12683;SDS011;6406;59.312;18.058;2023-01-08T08:33:18;0.00;;;0.00;;
12683;SDS011;6406;59.312;18.058;2023-01-08T08:35:48;2.47;;;1.50;;
12683;SDS011;6406;59.312;18.058;2023-01-08T08:38:17;0.00;;;0.00;;
12683;SDS011;6406;59.312;18.058;2023-01-08T08:40:44;2.33;;;2.00;;
12683;SDS011;6406;59.312;18.058;2023-01-08T08:43:11;1.03;;;1.00;;
12683;SDS011;6406;59.312;18.058;2023-01-08T08:45:38;0.43;;;0.43;;
12683;SDS011;6406;59.312;18.058;2023-01-08T08:48:05;1.50;;;1.23;;
12683;SDS011;6406;59.312;18.058;2023-01-08T08:50:33;0.50;;;0.43;;
12683;SDS011;6406;59.312;18.058;2023-01-08T08:53:02;1.20;;;0.97;;
12683;SDS011;6406;59.312;18.058;2023-01-08T08:55:31;2.03;;;0.50;;
12683;SDS011;6406;59.312;18.058;2023-01-08T08:58:03;0.43;;;0.33;;
12683;SDS011;6406;59.312;18.058;2023-01-08T09:00:31;0.53;;;0.53;;
12683;SDS011;6406;59.312;18.058;2023-01-08T09:02:58;0.47;;;0.47;;
12683;SDS011;6406;59.312;18.058;2023-01-08T09:05:25;1.27;;;0.77;;
12683;SDS011;6406;59.312;18.058;2023-01-08T09:07:52;0.57;;;0.57;;
12683;SDS011;6406;59.312;18.058;2023-01-08T09:10:21;0.17;;;0.17;;
12683;SDS011;6406;59.312;18.058;2023-01-08T09:12:48;0.57;;;0.33;;
12683;SDS011;6406;59.312;18.058;2023-01-08T09:15:18;1.00;;;0.93;;
12683;SDS011;6406;59.312;18.058;2023-01-08T09:17:44;0.17;;;0.17;;
12683;SDS011;6406;59.312;18.058;2023-01-08T09:20:17;1.57;;;1.47;;
12683;SDS011;6406;59.312;18.058;2023-01-08T09:22:44;1.00;;;0.67;;
12683;SDS011;6406;59.312;18.058;2023-01-08T09:25:11;0.57;;;0.37;;
12683;SDS011;6406;59.312;18.058;2023-01-08T09:27:39;1.23;;;0.87;;
12683;SDS011;6406;59.312;18.058;2023-01-08T09:30:07;9.53;;;4.63;;
12683;SDS011;6406;59.312;18.058;2023-01-08T09:32:34;5.97;;;3.33;;
12683;SDS011;6406;59.312;18.058;2023-01-08T09:35:02;6.20;;;3.17;;
12683;SDS011;6406;59.312;18.058;2023-01-08T09:37:30;4.87;;;4.13;;
12683;SDS011;6406;59.312;18.058;2023-01-08T09:39:57;7.90;;;1.80;;
12683;SDS011;6406;59.312;18.058;2023-01-08T09:42:25;6.00;;;3.43;;
12683;SDS011;6406;59.312;18.058;2023-01-08T09:44:55;6.80;;;4.10;;
12683;SDS011;6406;59.312;18.058;2023-01-08T09:47:25;0.50;;;0.50;;
12683;SDS011;6406;59.312;18.058;2023-01-08T09:49:56;6.60;;;2.00;;
12683;SDS011;6406;59.312;18.058;2023-01-08T09:52:25;5.10;;;3.23;;
12683;SDS011;6406;59.312;18.058;2023-01-08T09:54:53;1.70;;;1.13;;
12683;SDS011;6406;59.312;18.058;2023-01-08T09:57:20;8.03;;;6.87;;
12683;SDS011;6406;59.312;18.058;2023-01-08T09:59:48;1.73;;;1.53;;
12683;SDS011;6406;59.312;18.058;2023-01-08T10:02:17;6.70;;;2.73;;
12683;SDS011;6406;59.312;18.058;2023-01-08T10:04:46;2.33;;;1.83;;
12683;SDS011;6406;59.312;18.058;2023-01-08T10:07:21;1.30;;;1.30;;
12683;SDS011;6406;59.312;18.058;2023-01-08T10:09:49;0.57;;;0.50;;
12683;SDS011;6406;59.312;18.058;2023-01-08T10:12:18;1.00;;;0.63;;
12683;SDS011;6406;59.312;18.058;2023-01-08T10:14:50;0.40;;;0.40;;
12683;SDS011;6406;59.312;18.058;2023-01-08T10:17:24;2.13;;;2.00;;
12683;SDS011;6406;59.312;18.058;2023-01-08T10:19:56;3.57;;;3.27;;
12683;SDS011;6406;59.312;18.058;2023-01-08T10:22:23;5.00;;;3.03;;
12683;SDS011;6406;59.312;18.058;2023-01-08T10:25:02;9.67;;;5.40;;
12683;SDS011;6406;59.312;18.058;2023-01-08T10:27:35;3.43;;;2.30;;
12683;SDS011;6406;59.312;18.058;2023-01-08T10:30:14;2.57;;;1.97;;
12683;SDS011;6406;59.312;18.058;2023-01-08T10:32:47;6.93;;;4.33;;
12683;SDS011;6406;59.312;18.058;2023-01-08T10:35:18;7.73;;;2.30;;
12683;SDS011;6406;59.312;18.058;2023-01-08T10:37:50;2.13;;;2.03;;
12683;SDS011;6406;59.312;18.058;2023-01-08T10:40:21;7.63;;;4.43;;
12683;SDS011;6406;59.312;18.058;2023-01-08T10:42:53;11.43;;;5.83;;
12683;SDS011;6406;59.312;18.058;2023-01-08T10:45:22;12.83;;;6.47;;
12683;SDS011;6406;59.312;18.058;2023-01-08T10:47:53;4.53;;;3.20;;
12683;SDS011;6406;59.312;18.058;2023-01-08T10:50:23;5.10;;;3.53;;
12683;SDS011;6406;59.312;18.058;2023-01-08T10:52:52;4.43;;;2.73;;
12683;SDS011;6406;59.312;18.058;2023-01-08T10:55:21;18.10;;;9.23;;
12683;SDS011;6406;59.312;18.058;2023-01-08T10:57:55;22.47;;;7.73;;
12683;SDS011;6406;59.312;18.058;2023-01-08T11:00:24;13.63;;;5.30;;
12683;SDS011;6406;59.312;18.058;2023-01-08T11:02:56;0.60;;;0.60;;
12683;SDS011;6406;59.312;18.058;2023-01-08T11:05:29;3.13;;;2.93;;
12683;SDS011;6406;59.312;18.058;2023-01-08T11:07:58;11.50;;;4.70;;
12683;SDS011;6406;59.312;18.058;2023-01-08T11:10:26;10.97;;;5.40;;
12683;SDS011;6406;59.312;18.058;2023-01-08T11:12:55;10.00;;;5.93;;
12683;SDS011;6406;59.312;18.058;2023-01-08T11:15:29;3.83;;;1.40;;
12683;SDS011;6406;59.312;18.058;2023-01-08T11:18:06;5.23;;;4.80;;
12683;SDS011;6406;59.312;18.058;2023-01-08T11:20:42;11.20;;;7.97;;
12683;SDS011;6406;59.312;18.058;2023-01-08T11:23:15;8.07;;;4.70;;
12683;SDS011;6406;59.312;18.058;2023-01-08T11:25:44;13.40;;;5.50;;
12683;SDS011;6406;59.312;18.058;2023-01-08T11:28:18;7.50;;;5.57;;
12683;SDS011;6406;59.312;18.058;2023-01-08T11:30:53;4.87;;;2.13;;
12683;SDS011;6406;59.312;18.058;2023-01-08T11:33:27;14.90;;;7.67;;
12683;SDS011;6406;59.312;18.058;2023-01-08T11:35:59;12.73;;;6.20;;
12683;SDS011;6406;59.312;18.058;2023-01-08T11:38:31;21.07;;;7.63;;
12683;SDS011;6406;59.312;18.058;2023-01-08T11:41:00;9.93;;;6.67;;
12683;SDS011;6406;59.312;18.058;2023-01-08T11:43:39;12.23;;;7.67;;
12683;SDS011;6406;59.312;18.058;2023-01-08T11:46:25;6.40;;;4.60;;
12683;SDS011;6406;59.312;18.058;2023-01-08T11:49:04;5.57;;;4.97;;
12683;SDS011;6406;59.312;18.058;2023-01-08T11:51:49;21.20;;;8.43;;
12683;SDS011;6406;59.312;18.058;2023-01-08T11:54:35;6.63;;;3.80;;
12683;SDS011;6406;59.312;18.058;2023-01-08T11:57:16;8.83;;;5.00;;
12683;SDS011;6406;59.312;18.058;2023-01-08T11:59:53;8.03;;;5.00;;
12683;SDS011;6406;59.312;18.058;2023-01-08T12:02:30;10.90;;;4.00;;
12683;SDS011;6406;59.312;18.058;2023-01-08T12:05:20;13.73;;;5.83;;
12683;SDS011;6406;59.312;18.058;2023-01-08T12:07:54;4.47;;;4.10;;
12683;SDS011;6406;59.312;18.058;2023-01-08T12:10:27;13.40;;;6.80;;
12683;SDS011;6406;59.312;18.058;2023-01-08T12:13:04;9.40;;;5.23;;
12683;SDS011;6406;59.312;18.058;2023-01-08T12:15:44;4.43;;;4.07;;
12683;SDS011;6406;59.312;18.058;2023-01-08T12:18:26;4.73;;;4.10;;
12683;SDS011;6406;59.312;18.058;2023-01-08T12:21:08;11.23;;;6.80;;
12683;SDS011;6406;59.312;18.058;2023-01-08T12:23:47;6.90;;;6.37;;
12683;SDS011;6406;59.312;18.058;2023-01-08T12:26:28;0.97;;;0.70;;
12683;SDS011;6406;59.312;18.058;2023-01-08T12:29:18;16.87;;;7.23;;
12683;SDS011;6406;59.312;18.058;2023-01-08T12:32:01;2.83;;;2.13;;
12683;SDS011;6406;59.312;18.058;2023-01-08T12:34:45;5.57;;;2.93;;
12683;SDS011;6406;59.312;18.058;2023-01-08T12:37:22;5.57;;;2.13;;
12683;SDS011;6406;59.312;18.058;2023-01-08T12:39:54;18.77;;;8.90;;
12683;SDS011;6406;59.312;18.058;2023-01-08T12:42:26;11.20;;;8.30;;
12683;SDS011;6406;59.312;18.058;2023-01-08T12:44:56;14.57;;;7.73;;
12683;SDS011;6406;59.312;18.058;2023-01-08T12:47:26;4.73;;;3.67;;
12683;SDS011;6406;59.312;18.058;2023-01-08T12:49:58;26.60;;;9.17;;
12683;SDS011;6406;59.312;18.058;2023-01-08T12:52:39;15.93;;;7.17;;
12683;SDS011;6406;59.312;18.058;2023-01-08T12:55:16;2.50;;;2.30;;
12683;SDS011;6406;59.312;18.058;2023-01-08T12:57:52;4.40;;;3.27;;
12683;SDS011;6406;59.312;18.058;2023-01-08T13:00:29;1.57;;;1.47;;
12683;SDS011;6406;59.312;18.058;2023-01-08T13:03:03;3.57;;;3.27;;
12683;SDS011;6406;59.312;18.058;2023-01-08T13:05:39;2.63;;;1.43;;
12683;SDS011;6406;59.312;18.058;2023-01-08T13:08:19;11.03;;;6.07;;
12683;SDS011;6406;59.312;18.058;2023-01-08T13:10:53;7.53;;;3.97;;
12683;SDS011;6406;59.312;18.058;2023-01-08T13:13:24;7.07;;;6.37;;
12683;SDS011;6406;59.312;18.058;2023-01-08T13:16:03;14.67;;;7.20;;
12683;SDS011;6406;59.312;18.058;2023-01-08T13:18:32;4.57;;;4.27;;
12683;SDS011;6406;59.312;18.058;2023-01-08T13:21:00;14.87;;;7.93;;
12683;SDS011;6406;59.312;18.058;2023-01-08T13:23:30;8.40;;;5.83;;
12683;SDS011;6406;59.312;18.058;2023-01-08T13:25:59;1.50;;;1.40;;
12683;SDS011;6406;59.312;18.058;2023-01-08T13:28:28;6.50;;;2.30;;
12683;SDS011;6406;59.312;18.058;2023-01-08T13:31:06;7.83;;;4.20;;
12683;SDS011;6406;59.312;18.058;2023-01-08T13:33:36;9.17;;;5.17;;
12683;SDS011;6406;59.312;18.058;2023-01-08T13:36:19;24.90;;;8.33;;
12683;SDS011;6406;59.312;18.058;2023-01-08T13:39:00;8.17;;;5.33;;
12683;SDS011;6406;59.312;18.058;2023-01-08T13:41:29;6.40;;;5.87;;
12683;SDS011;6406;59.312;18.058;2023-01-08T13:43:59;11.70;;;7.93;;
12683;SDS011;6406;59.312;18.058;2023-01-08T13:46:29;7.00;;;6.03;;
12683;SDS011;6406;59.312;18.058;2023-01-08T13:48:59;2.70;;;2.50;;
12683;SDS011;6406;59.312;18.058;2023-01-08T13:51:29;12.50;;;5.87;;
12683;SDS011;6406;59.312;18.058;2023-01-08T13:54:01;6.30;;;5.43;;
12683;SDS011;6406;59.312;18.058;2023-01-08T13:56:33;11.80;;;7.87;;
12683;SDS011;6406;59.312;18.058;2023-01-08T13:59:00;9.40;;;6.97;;
12683;SDS011;6406;59.312;18.058;2023-01-08T14:01:29;5.97;;;5.30;;
12683;SDS011;6406;59.312;18.058;2023-01-08T14:03:56;5.73;;;4.67;;
12683;SDS011;6406;59.312;18.058;2023-01-08T14:06:24;9.40;;;5.43;;
12683;SDS011;6406;59.312;18.058;2023-01-08T14:08:52;16.33;;;10.17;;
12683;SDS011;6406;59.312;18.058;2023-01-08T14:11:23;19.57;;;8.63;;
12683;SDS011;6406;59.312;18.058;2023-01-08T14:13:55;0.47;;;0.47;;
12683;SDS011;6406;59.312;18.058;2023-01-08T14:16:22;15.33;;;8.23;;
12683;SDS011;6406;59.312;18.058;2023-01-08T14:18:50;23.80;;;10.40;;
12683;SDS011;6406;59.312;18.058;2023-01-08T14:21:20;14.13;;;8.27;;
12683;SDS011;6406;59.312;18.058;2023-01-08T14:23:48;9.10;;;5.57;;
12683;SDS011;6406;59.312;18.058;2023-01-08T14:26:19;21.07;;;10.87;;
12683;SDS011;6406;59.312;18.058;2023-01-08T14:28:53;7.80;;;6.80;;
12683;SDS011;6406;59.312;18.058;2023-01-08T14:31:21;8.50;;;5.43;;
12683;SDS011;6406;59.312;18.058;2023-01-08T14:33:49;14.50;;;7.87;;
12683;SDS011;6406;59.312;18.058;2023-01-08T14:36:18;21.70;;;10.07;;
12683;SDS011;6406;59.312;18.058;2023-01-08T14:38:46;4.00;;;2.60;;
12683;SDS011;6406;59.312;18.058;2023-01-08T14:41:16;7.87;;;4.63;;
12683;SDS011;6406;59.312;18.058;2023-01-08T14:43:50;16.60;;;7.47;;
12683;SDS011;6406;59.312;18.058;2023-01-08T14:46:18;2.87;;;2.53;;
12683;SDS011;6406;59.312;18.058;2023-01-08T14:48:47;11.33;;;7.90;;
12683;SDS011;6406;59.312;18.058;2023-01-08T14:51:19;18.10;;;9.60;;
12683;SDS011;6406;59.312;18.058;2023-01-08T14:53:48;4.70;;;4.23;;
12683;SDS011;6406;59.312;18.058;2023-01-08T14:56:18;21.73;;;11.17;;
12683;SDS011;6406;59.312;18.058;2023-01-08T14:58:50;15.83;;;9.53;;
12683;SDS011;6406;59.312;18.058;2023-01-08T15:01:20;9.43;;;5.83;;